createdAt,value
2018-05-11T00:00:53.445Z,18.50
2018-05-11T00:01:53.410Z,16.90
2018-05-11T00:02:53.377Z,14.60
2018-05-11T00:03:53.346Z,15.10
2018-05-11T00:04:53.298Z,17.80
2018-05-11T00:05:53.258Z,18.20
2018-05-11T00:06:53.230Z,19.00
2018-05-11T00:07:53.189Z,16.90
2018-05-11T00:08:53.153Z,16.40
2018-05-11T00:09:53.116Z,16.40
2018-05-11T00:10:53.074Z,17.60
2018-05-11T00:11:53.043Z,15.60
2018-05-11T00:12:53.009Z,16.20
2018-05-11T00:13:52.977Z,17.50
2018-05-11T00:14:52.936Z,15.00
2018-05-11T00:15:52.903Z,14.10
2018-05-11T00:16:52.859Z,16.00
2018-05-11T00:17:52.826Z,13.40
2018-05-11T00:18:52.791Z,12.80
2018-05-11T00:19:52.751Z,14.30
2018-05-11T00:20:52.719Z,14.00
2018-05-11T00:21:52.681Z,14.90
2018-05-11T00:22:52.638Z,14.40
2018-05-11T00:23:52.607Z,13.30
2018-05-11T00:24:52.574Z,12.30
2018-05-11T00:25:52.538Z,13.50
2018-05-11T00:26:52.504Z,12.60
2018-05-11T00:27:52.464Z,13.60
2018-05-11T00:28:52.423Z,12.80
2018-05-11T00:29:52.384Z,13.50
2018-05-11T00:30:52.347Z,11.40
2018-05-11T00:31:52.315Z,13.30
2018-05-11T00:32:52.280Z,13.90
2018-05-11T00:33:52.250Z,14.40
2018-05-11T00:34:52.209Z,13.50
2018-05-11T00:35:52.171Z,11.20
2018-05-11T00:36:52.148Z,10.00
2018-05-11T00:37:52.094Z,11.30
2018-05-11T00:38:52.064Z,12.20
2018-05-11T00:39:52.024Z,11.50
2018-05-11T00:40:51.985Z,12.70
2018-05-11T00:41:51.946Z,12.40
2018-05-11T00:42:51.910Z,12.80
2018-05-11T00:43:51.876Z,16.60
2018-05-11T00:44:51.841Z,12.50
2018-05-11T00:45:51.810Z,13.50
2018-05-11T00:46:51.769Z,13.40
2018-05-11T00:47:51.732Z,10.10
2018-05-11T00:48:51.693Z,13.60
2018-05-11T00:49:51.658Z,10.90
2018-05-11T00:50:51.620Z,12.80
2018-05-11T00:51:51.578Z,12.90
2018-05-11T00:52:51.553Z,12.50
2018-05-11T00:53:51.513Z,14.90
2018-05-11T00:54:51.474Z,11.40
2018-05-11T00:55:51.438Z,13.20
2018-05-11T00:56:51.403Z,11.10
2018-05-11T00:57:51.365Z,15.20
2018-05-11T00:58:51.328Z,12.70
2018-05-11T00:59:51.295Z,9.70
2018-05-11T01:00:51.248Z,14.30
2018-05-11T01:01:51.217Z,12.90
2018-05-11T01:02:51.179Z,12.80
2018-05-11T01:03:51.137Z,12.00
2018-05-11T01:04:51.109Z,16.20
2018-05-11T01:05:51.073Z,10.30
2018-05-11T01:06:51.037Z,12.30
2018-05-11T01:07:50.998Z,10.30
2018-05-11T01:08:50.956Z,12.30
2018-05-11T01:09:50.921Z,13.00
2018-05-11T01:10:50.889Z,10.70
2018-05-11T01:11:50.851Z,9.30
2018-05-11T01:12:50.807Z,9.00
2018-05-11T01:13:50.776Z,12.20
2018-05-11T01:14:50.737Z,16.90
2018-05-11T01:15:50.697Z,10.90
2018-05-11T01:16:50.678Z,11.10
2018-05-11T01:17:50.630Z,13.20
2018-05-11T01:18:50.594Z,11.20
2018-05-11T01:19:50.556Z,10.90
2018-05-11T01:20:50.516Z,12.30
2018-05-11T01:21:50.480Z,12.90
2018-05-11T01:22:50.446Z,11.30
2018-05-11T01:23:50.405Z,11.50
2018-05-11T01:24:50.371Z,11.70
2018-05-11T01:25:50.335Z,10.60
2018-05-11T01:26:50.296Z,10.70
2018-05-11T01:27:50.257Z,9.80
2018-05-11T01:28:50.227Z,12.60
2018-05-11T01:29:50.185Z,11.50
2018-05-11T01:30:50.150Z,12.60
2018-05-11T01:31:50.116Z,11.10
2018-05-11T01:32:50.070Z,10.60
2018-05-11T01:33:50.041Z,12.40
2018-05-11T01:34:50.003Z,12.20
2018-05-11T01:35:49.962Z,13.70
2018-05-11T01:36:49.932Z,15.90
2018-05-11T01:37:49.892Z,9.30
2018-05-11T01:38:49.857Z,10.40
2018-05-11T01:39:49.854Z,13.10
2018-05-11T01:40:49.783Z,10.10
2018-05-11T01:41:49.744Z,11.30
2018-05-11T01:42:49.710Z,10.70
2018-05-11T01:43:49.672Z,13.30
2018-05-11T01:44:49.632Z,14.70
2018-05-11T01:45:49.596Z,12.80
2018-05-11T01:46:49.563Z,9.20
2018-05-11T01:47:49.521Z,12.60
2018-05-11T01:48:49.492Z,13.40
2018-05-11T01:49:49.451Z,13.60
2018-05-11T01:50:49.414Z,11.50
2018-05-11T01:51:49.377Z,13.70
2018-05-11T01:52:49.340Z,11.40
2018-05-11T01:53:49.301Z,12.20
2018-05-11T01:54:49.266Z,14.40
2018-05-11T01:55:49.225Z,12.60
2018-05-11T01:56:49.194Z,11.40
2018-05-11T01:57:49.159Z,10.60
2018-05-11T01:58:49.118Z,16.00
2018-05-11T01:59:49.159Z,10.10
2018-05-11T02:00:49.045Z,12.40
2018-05-11T02:01:49.008Z,14.90
2018-05-11T02:02:48.974Z,9.90
2018-05-11T02:03:48.936Z,9.70
2018-05-11T02:04:48.891Z,14.10
2018-05-11T02:05:48.859Z,10.20
2018-05-11T02:06:48.817Z,12.10
2018-05-11T02:07:48.784Z,13.20
2018-05-11T02:08:48.757Z,11.50
2018-05-11T02:09:48.712Z,11.70
2018-05-11T02:10:48.676Z,10.80
2018-05-11T02:11:48.640Z,9.10
2018-05-11T02:12:48.597Z,11.60
2018-05-11T02:13:48.566Z,11.30
2018-05-11T02:14:48.529Z,13.50
2018-05-11T02:15:48.492Z,11.70
2018-05-11T02:16:48.451Z,11.40
2018-05-11T02:17:48.416Z,13.20
2018-05-11T02:18:48.378Z,10.90
2018-05-11T02:19:48.338Z,14.10
2018-05-11T02:20:48.310Z,14.20
2018-05-11T02:21:48.268Z,14.20
2018-05-11T02:22:48.233Z,11.00
2018-05-11T02:23:48.194Z,13.20
2018-05-11T02:24:48.153Z,13.80
2018-05-11T02:25:48.190Z,12.20
2018-05-11T02:26:48.083Z,14.80
2018-05-11T02:27:48.046Z,11.70
2018-05-11T02:28:48.014Z,14.60
2018-05-11T02:29:47.978Z,13.90
2018-05-11T02:30:47.936Z,13.10
2018-05-11T02:31:47.896Z,10.30
2018-05-11T02:32:47.863Z,13.90
2018-05-11T02:33:47.825Z,15.70
2018-05-11T02:34:47.790Z,13.80
2018-05-11T02:35:47.751Z,13.20
2018-05-11T02:36:47.709Z,15.30
2018-05-11T02:37:47.677Z,11.00
2018-05-11T02:38:47.637Z,13.20
2018-05-11T02:39:47.596Z,15.60
2018-05-11T02:40:47.566Z,13.30
2018-05-11T02:41:47.527Z,10.80
2018-05-11T02:42:47.493Z,13.10
2018-05-11T02:43:47.454Z,14.60
2018-05-11T02:44:47.414Z,13.50
2018-05-11T02:45:47.377Z,11.30
2018-05-11T02:46:47.343Z,14.60
2018-05-11T02:47:47.308Z,13.40
2018-05-11T02:48:47.264Z,13.90
2018-05-11T02:49:47.229Z,14.10
2018-05-11T02:50:47.192Z,15.70
2018-05-11T02:51:47.151Z,14.90
2018-05-11T02:52:47.126Z,14.40
2018-05-11T02:53:47.083Z,17.70
2018-05-11T02:54:47.050Z,13.90
2018-05-11T02:55:47.013Z,12.50
2018-05-11T02:56:46.966Z,17.90
2018-05-11T02:57:46.934Z,15.40
2018-05-11T02:58:46.897Z,13.80
2018-05-11T02:59:46.854Z,13.40
2018-05-11T03:00:46.825Z,13.90
2018-05-11T03:01:46.790Z,18.00
2018-05-11T03:02:46.746Z,17.00
2018-05-11T03:03:46.704Z,14.30
2018-05-11T03:04:46.673Z,17.50
2018-05-11T03:05:46.636Z,14.90
2018-05-11T03:06:46.599Z,16.60
2018-05-11T03:07:46.560Z,16.10
2018-05-11T03:08:46.520Z,13.30
2018-05-11T03:09:46.485Z,15.60
2018-05-11T03:10:46.450Z,14.60
2018-05-11T03:11:46.412Z,17.20
2018-05-11T03:12:46.377Z,17.80
2018-05-11T03:13:46.338Z,14.30
2018-05-11T03:14:46.308Z,13.20
2018-05-11T03:15:46.265Z,13.40
2018-05-11T03:16:46.247Z,16.10
2018-05-11T03:17:46.188Z,12.00
2018-05-11T03:18:46.157Z,18.40
2018-05-11T03:19:46.115Z,15.60
2018-05-11T03:20:46.073Z,13.70
2018-05-11T03:21:46.039Z,15.40
2018-05-11T03:22:46.001Z,18.20
2018-05-11T03:23:45.961Z,17.50
2018-05-11T03:24:45.928Z,14.80
2018-05-11T03:25:45.889Z,13.30
2018-05-11T03:26:45.852Z,15.90
2018-05-11T03:27:45.816Z,13.70
2018-05-11T03:28:45.769Z,16.50
2018-05-11T03:29:45.738Z,18.40
2018-05-11T03:30:45.701Z,15.00
2018-05-11T03:31:45.665Z,16.80
2018-05-11T03:32:45.629Z,17.90
2018-05-11T03:33:45.595Z,17.90
2018-05-11T03:34:45.555Z,12.50
2018-05-11T03:35:45.511Z,15.40
2018-05-11T03:36:45.480Z,14.10
2018-05-11T03:37:45.441Z,16.40
2018-05-11T03:38:45.405Z,13.90
2018-05-11T03:39:45.368Z,17.80
2018-05-11T03:40:45.326Z,18.00
2018-05-11T03:41:45.293Z,15.20
2018-05-11T03:42:45.254Z,15.90
2018-05-11T03:43:45.209Z,16.50
2018-05-11T03:44:45.185Z,13.60
2018-05-11T03:45:45.145Z,17.90
2018-05-11T03:46:45.104Z,16.20
2018-05-11T03:47:45.071Z,18.10
2018-05-11T03:48:45.026Z,16.30
2018-05-11T03:49:44.993Z,13.50
2018-05-11T03:50:44.956Z,16.40
2018-05-11T03:51:44.918Z,15.60
2018-05-11T03:52:44.874Z,17.20
2018-05-11T03:53:44.841Z,16.00
2018-05-11T03:54:44.819Z,19.50
2018-05-11T03:55:44.765Z,18.10
2018-05-11T03:56:44.733Z,19.20
2018-05-11T03:57:44.691Z,17.10
2018-05-11T03:58:44.654Z,17.70
2018-05-11T03:59:44.618Z,16.80
2018-05-11T04:00:44.570Z,19.20
2018-05-11T04:01:44.540Z,18.40
2018-05-11T04:02:44.503Z,16.30
2018-05-11T04:03:44.462Z,16.50
2018-05-11T04:04:44.431Z,15.10
2018-05-11T04:05:44.392Z,16.50
2018-05-11T04:06:44.352Z,16.20
2018-05-11T04:07:44.308Z,15.80
2018-05-11T04:08:44.278Z,14.10
2018-05-11T04:09:44.243Z,15.40
2018-05-11T04:10:44.203Z,15.80
2018-05-11T04:11:44.170Z,17.30
2018-05-11T04:12:44.128Z,17.10
2018-05-11T04:13:44.089Z,16.40
2018-05-11T04:14:44.049Z,15.10
2018-05-11T04:15:44.009Z,17.10
2018-05-11T04:16:43.978Z,16.80
2018-05-11T04:17:43.944Z,14.40
2018-05-11T04:18:43.903Z,17.20
2018-05-11T04:19:43.869Z,15.00
2018-05-11T04:20:43.860Z,16.10
2018-05-11T04:21:43.790Z,14.40
2018-05-11T04:22:43.752Z,17.30
2018-05-11T04:23:43.716Z,17.50
2018-05-11T04:24:43.672Z,14.50
2018-05-11T04:25:43.638Z,13.50
2018-05-11T04:26:43.605Z,14.50
2018-05-11T04:27:43.560Z,15.40
2018-05-11T04:28:43.532Z,14.40
2018-05-11T04:29:43.491Z,15.20
2018-05-11T04:30:43.456Z,15.80
2018-05-11T04:31:43.418Z,17.10
2018-05-11T04:32:43.376Z,18.50
2018-05-11T04:33:43.338Z,15.80
2018-05-11T04:34:43.300Z,17.00
2018-05-11T04:35:43.260Z,15.40
2018-05-11T04:36:43.229Z,16.30
2018-05-11T04:37:43.191Z,16.70
2018-05-11T04:38:43.154Z,16.80
2018-05-11T04:39:43.114Z,16.20
2018-05-11T04:40:43.081Z,14.90
2018-05-11T04:41:43.044Z,15.90
2018-05-11T04:42:43.004Z,15.50
2018-05-11T04:43:42.966Z,14.20
2018-05-11T04:44:42.922Z,15.90
2018-05-11T04:45:42.893Z,15.30
2018-05-11T04:46:42.853Z,14.90
2018-05-11T04:47:42.811Z,17.70
2018-05-11T04:48:42.782Z,14.20
2018-05-11T04:49:42.743Z,12.80
2018-05-11T04:50:42.705Z,15.60
2018-05-11T04:51:42.669Z,13.20
2018-05-11T04:52:42.628Z,14.60
2018-05-11T04:53:42.590Z,15.90
2018-05-11T04:54:42.556Z,12.40
2018-05-11T04:55:42.519Z,15.60
2018-05-11T04:56:42.477Z,12.30
2018-05-11T04:57:42.455Z,16.10
2018-05-11T04:58:42.410Z,14.90
2018-05-11T04:59:42.365Z,13.90
2018-05-11T05:00:42.337Z,14.50
2018-05-11T05:01:42.298Z,14.00
2018-05-11T05:02:42.256Z,12.70
2018-05-11T05:03:42.218Z,13.20
2018-05-11T05:04:42.186Z,13.60
2018-05-11T05:05:42.149Z,15.50
2018-05-11T05:06:42.113Z,19.00
2018-05-11T05:07:42.076Z,14.30
2018-05-11T05:08:42.029Z,16.90
2018-05-11T05:09:41.998Z,17.10
2018-05-11T05:10:41.961Z,15.00
2018-05-11T05:11:41.926Z,15.40
2018-05-11T05:12:41.886Z,15.40
2018-05-11T05:13:41.851Z,16.30
2018-05-11T05:14:41.814Z,14.90
2018-05-11T05:15:41.776Z,15.30
2018-05-11T05:16:41.741Z,15.50
2018-05-11T05:17:41.704Z,17.00
2018-05-11T05:18:41.667Z,17.40
2018-05-11T05:19:41.630Z,13.70
2018-05-11T05:20:41.585Z,15.50
2018-05-11T05:21:41.560Z,14.10
2018-05-11T05:22:41.517Z,15.40
2018-05-11T05:23:41.477Z,18.70
2018-05-11T05:24:41.450Z,14.00
2018-05-11T05:25:41.407Z,17.30
2018-05-11T05:26:41.370Z,15.90
2018-05-11T05:27:41.330Z,16.00
2018-05-11T05:28:41.299Z,14.60
2018-05-11T05:29:41.269Z,16.40
2018-05-11T05:30:41.227Z,14.50
2018-05-11T05:31:41.188Z,17.50
2018-05-11T05:32:41.152Z,18.40
2018-05-11T05:33:41.110Z,13.80
2018-05-11T05:34:41.076Z,19.40
2018-05-11T05:35:41.035Z,16.10
2018-05-11T05:36:41.007Z,15.70
2018-05-11T05:37:40.965Z,16.00
2018-05-11T05:38:40.927Z,15.30
2018-05-11T05:39:40.898Z,16.90
2018-05-11T05:40:40.851Z,15.40
2018-05-11T05:41:40.815Z,17.10
2018-05-11T05:42:40.781Z,14.90
2018-05-11T05:43:40.745Z,18.90
2018-05-11T05:44:40.701Z,17.70
2018-05-11T05:45:40.671Z,15.10
2018-05-11T05:46:40.633Z,15.00
2018-05-11T05:47:40.591Z,18.10
2018-05-11T05:48:40.561Z,16.90
2018-05-11T05:49:40.521Z,16.00
2018-05-11T05:50:40.485Z,17.20
2018-05-11T05:51:40.450Z,13.90
2018-05-11T05:52:40.408Z,17.60
2018-05-11T05:53:40.376Z,17.50
2018-05-11T05:54:40.337Z,20.20
2018-05-11T05:55:40.299Z,17.50
2018-05-11T05:56:40.265Z,18.30
2018-05-11T05:57:40.231Z,15.80
2018-05-11T05:58:40.194Z,15.90
2018-05-11T05:59:40.151Z,18.30
2018-05-11T06:00:40.123Z,18.30
2018-05-11T06:01:40.086Z,21.40
2018-05-11T06:02:40.043Z,15.30
2018-05-11T06:03:40.009Z,17.20
2018-05-11T06:04:40.023Z,17.30
2018-05-11T06:05:39.930Z,19.00
2018-05-11T06:06:39.896Z,16.50
2018-05-11T06:07:39.854Z,18.00
2018-05-11T06:08:39.829Z,17.60
2018-05-11T06:09:39.786Z,19.40
2018-05-11T06:10:39.750Z,17.60
2018-05-11T06:11:39.712Z,16.80
2018-05-11T06:12:39.672Z,19.00
2018-05-11T06:13:39.638Z,25.00
2018-05-11T06:14:39.603Z,19.40
2018-05-11T06:15:39.584Z,17.80
2018-05-11T06:16:39.528Z,18.90
2018-05-11T06:17:39.552Z,21.80
2018-05-11T06:18:39.455Z,23.20
2018-05-11T06:19:39.416Z,25.30
2018-05-11T06:20:39.383Z,22.70
2018-05-11T06:21:39.347Z,23.60
2018-05-11T06:22:39.310Z,22.80
2018-05-11T06:23:39.272Z,27.60
2018-05-11T06:24:39.230Z,18.30
2018-05-11T06:25:39.197Z,23.50
2018-05-11T06:26:39.160Z,24.80
2018-05-11T06:27:39.118Z,21.70
2018-05-11T06:28:39.089Z,20.10
2018-05-11T06:29:39.052Z,22.40
2018-05-11T06:30:39.013Z,18.20
2018-05-11T06:31:38.974Z,20.30
2018-05-11T06:32:38.944Z,23.00
2018-05-11T06:33:38.907Z,22.80
2018-05-11T06:34:38.868Z,21.90
2018-05-11T06:35:38.836Z,20.40
2018-05-11T06:36:38.790Z,23.30
2018-05-11T06:37:38.757Z,22.50
2018-05-11T06:38:38.720Z,20.60
2018-05-11T06:39:38.679Z,22.30
2018-05-11T06:40:38.702Z,19.60
2018-05-11T06:41:38.614Z,27.20
2018-05-11T06:42:38.581Z,20.80
2018-05-11T06:43:38.541Z,21.50
2018-05-11T06:44:38.505Z,20.80
2018-05-11T06:45:38.465Z,20.00
2018-05-11T06:46:38.431Z,21.60
2018-05-11T06:47:38.394Z,20.10
2018-05-11T06:48:38.356Z,19.70
2018-05-11T06:49:38.319Z,22.60
2018-05-11T06:50:38.283Z,18.50
2018-05-11T06:51:38.244Z,21.30
2018-05-11T06:52:38.218Z,22.70
2018-05-11T06:53:38.175Z,19.40
2018-05-11T06:54:38.141Z,20.80
2018-05-11T06:55:38.108Z,18.50
2018-05-11T06:56:38.064Z,23.00
2018-05-11T06:57:38.030Z,21.60
2018-05-11T06:58:37.993Z,24.00
2018-05-11T06:59:37.954Z,20.90
2018-05-11T07:00:37.927Z,28.30
2018-05-11T07:01:37.941Z,32.30
2018-05-11T07:02:37.848Z,36.40
2018-05-11T07:03:37.811Z,32.10
2018-05-11T07:04:37.779Z,32.70
2018-05-11T07:05:37.743Z,31.20
2018-05-11T07:06:37.709Z,34.80
2018-05-11T07:07:37.769Z,34.50
2018-05-11T07:08:37.629Z,31.40
2018-05-11T07:09:37.597Z,31.40
2018-05-11T07:10:37.570Z,32.70
2018-05-11T07:11:37.523Z,34.10
2018-05-11T07:12:37.493Z,34.20
2018-05-11T07:13:37.458Z,31.00
2018-05-11T07:14:37.422Z,32.40
2018-05-11T07:15:37.384Z,35.80
2018-05-11T07:16:37.345Z,30.80
2018-05-11T07:17:37.313Z,28.20
2018-05-11T07:18:37.280Z,34.70
2018-05-11T07:19:37.266Z,36.60
2018-05-11T07:20:37.204Z,34.00
2018-05-11T07:21:37.170Z,34.90
2018-05-11T07:22:37.133Z,36.10
2018-05-11T07:23:37.096Z,34.50
2018-05-11T07:24:37.066Z,34.70
2018-05-11T07:25:37.106Z,38.50
2018-05-11T07:26:36.991Z,33.90
2018-05-11T07:27:36.962Z,35.10
2018-05-11T07:28:36.918Z,35.60
2018-05-11T07:29:36.890Z,34.50
2018-05-11T07:30:36.847Z,30.40
2018-05-11T07:31:36.813Z,36.40
2018-05-11T07:32:36.782Z,33.20
2018-05-11T07:33:36.746Z,34.40
2018-05-11T07:34:36.727Z,35.90
2018-05-11T07:35:36.668Z,38.00
2018-05-11T07:36:36.644Z,40.90
2018-05-11T07:37:36.603Z,41.20
2018-05-11T07:38:36.571Z,36.60
2018-05-11T07:39:36.533Z,40.70
2018-05-11T07:40:36.512Z,40.00
2018-05-11T07:41:36.463Z,40.40
2018-05-11T07:42:36.429Z,40.40
2018-05-11T07:43:36.405Z,41.60
2018-05-11T07:44:36.364Z,40.30
2018-05-11T07:45:36.326Z,36.60
2018-05-11T07:46:36.293Z,36.90
2018-05-11T07:47:36.257Z,39.60
2018-05-11T07:48:36.214Z,37.00
2018-05-11T07:49:36.186Z,38.60
2018-05-11T07:50:36.151Z,36.30
2018-05-11T07:51:36.159Z,37.60
2018-05-11T07:52:36.075Z,39.00
2018-05-11T07:53:36.043Z,38.50
2018-05-11T07:54:36.011Z,37.20
2018-05-11T07:55:35.984Z,37.90
2018-05-11T07:56:35.942Z,39.80
2018-05-11T07:57:35.907Z,40.40
2018-05-11T07:58:35.871Z,34.50
2018-05-11T07:59:35.840Z,38.70
2018-05-11T08:00:35.796Z,38.90
2018-05-11T08:01:35.764Z,38.10
2018-05-11T08:02:35.733Z,38.20
2018-05-11T08:03:35.693Z,38.90
2018-05-11T08:04:35.665Z,38.40
2018-05-11T08:05:35.629Z,36.40
2018-05-11T08:06:35.593Z,39.00
2018-05-11T08:07:35.574Z,37.20
2018-05-11T08:08:35.531Z,37.50
2018-05-11T08:09:35.494Z,36.30
2018-05-11T08:10:35.458Z,36.60
2018-05-11T08:11:35.423Z,39.20
2018-05-11T08:12:35.385Z,37.10
2018-05-11T08:13:35.353Z,35.80
2018-05-11T08:14:35.415Z,38.00
2018-05-11T08:15:35.277Z,33.60
2018-05-11T08:16:35.253Z,37.00
2018-05-11T08:17:35.219Z,37.00
2018-05-11T08:18:35.186Z,39.60
2018-05-11T08:19:35.151Z,37.70
2018-05-11T08:20:35.110Z,39.80
2018-05-11T08:21:35.079Z,40.00
2018-05-11T08:22:35.046Z,34.90
2018-05-11T08:23:35.013Z,36.80
2018-05-11T08:24:34.974Z,38.00
2018-05-11T08:25:34.941Z,40.70
2018-05-11T08:26:35.015Z,38.40
2018-05-11T08:27:34.869Z,37.10
2018-05-11T08:28:34.843Z,37.20
2018-05-11T08:29:34.808Z,37.70
2018-05-11T08:30:34.773Z,35.10
2018-05-11T08:31:34.739Z,34.60
2018-05-11T08:32:34.702Z,33.80
2018-05-11T08:33:34.669Z,35.20
2018-05-11T08:34:34.636Z,31.50
2018-05-11T08:35:34.600Z,32.10
2018-05-11T08:36:34.572Z,34.30
2018-05-11T08:37:34.535Z,34.20
2018-05-11T08:38:34.499Z,32.80
2018-05-11T08:39:34.462Z,32.10
2018-05-11T08:40:34.435Z,34.30
2018-05-11T08:41:34.401Z,36.30
2018-05-11T08:42:34.367Z,34.00
2018-05-11T08:43:34.333Z,33.10
2018-05-11T08:44:34.307Z,32.30
2018-05-11T08:45:34.262Z,29.90
2018-05-11T08:46:34.229Z,31.40
2018-05-11T08:47:34.190Z,33.70
2018-05-11T08:48:34.162Z,30.00
2018-05-11T08:49:34.129Z,34.70
2018-05-11T08:50:34.096Z,29.10
2018-05-11T08:51:34.062Z,33.00
2018-05-11T08:52:34.022Z,33.60
2018-05-11T08:53:33.993Z,31.00
2018-05-11T08:54:33.962Z,33.80
2018-05-11T08:55:33.926Z,30.10
2018-05-11T08:56:33.888Z,28.90
2018-05-11T08:57:33.862Z,30.10
2018-05-11T08:58:33.824Z,30.80
2018-05-11T08:59:33.785Z,33.00
2018-05-11T09:00:33.759Z,30.70
2018-05-11T09:01:33.726Z,27.30
2018-05-11T09:02:33.691Z,29.10
2018-05-11T09:03:33.658Z,31.40
2018-05-11T09:04:33.623Z,30.90
2018-05-11T09:05:33.590Z,28.40
2018-05-11T09:06:33.559Z,28.80
2018-05-11T09:07:33.516Z,27.80
2018-05-11T09:08:33.549Z,27.80
2018-05-11T09:09:33.457Z,26.90
2018-05-11T09:10:33.421Z,28.30
2018-05-11T09:11:33.382Z,29.70
2018-05-11T09:12:33.356Z,27.10
2018-05-11T09:13:33.324Z,27.20
2018-05-11T09:14:33.290Z,27.60
2018-05-11T09:15:33.257Z,24.80
2018-05-11T09:16:33.217Z,24.50
2018-05-11T09:17:33.186Z,26.80
2018-05-11T09:18:33.149Z,25.20
2018-05-11T09:19:33.118Z,24.60
2018-05-11T09:20:33.089Z,27.60
2018-05-11T09:21:33.057Z,24.90
2018-05-11T09:22:33.021Z,35.80
2018-05-11T09:23:32.991Z,25.90
2018-05-11T09:24:32.952Z,26.90
2018-05-11T09:25:32.918Z,25.20
2018-05-11T09:26:32.889Z,27.30
2018-05-11T09:27:32.853Z,25.10
2018-05-11T09:28:32.817Z,27.30
2018-05-11T09:29:32.780Z,25.70
2018-05-11T09:30:32.751Z,28.80
2018-05-11T09:31:32.722Z,24.20
2018-05-11T09:32:32.685Z,23.50
2018-05-11T09:33:32.654Z,27.60
2018-05-11T09:34:32.620Z,24.10
2018-05-11T09:35:32.584Z,26.90
2018-05-11T09:36:32.549Z,28.00
2018-05-11T09:37:32.512Z,28.30
2018-05-11T09:38:32.477Z,28.30
2018-05-11T09:39:32.550Z,23.40
2018-05-11T09:40:32.417Z,26.40
2018-05-11T09:41:32.383Z,28.30
2018-05-11T09:42:32.344Z,27.40
2018-05-11T09:43:32.317Z,28.70
2018-05-11T09:44:32.285Z,26.40
2018-05-11T09:45:32.251Z,25.30
2018-05-11T09:46:32.217Z,23.50
2018-05-11T09:47:32.180Z,25.30
2018-05-11T09:48:32.143Z,26.80
2018-05-11T09:49:32.150Z,24.70
2018-05-11T09:50:32.078Z,30.30
2018-05-11T09:51:32.045Z,27.40
2018-05-11T09:52:32.011Z,23.30
2018-05-11T09:53:31.979Z,26.20
2018-05-11T09:54:31.947Z,22.60
2018-05-11T09:55:31.913Z,23.90
2018-05-11T09:56:31.879Z,25.10
2018-05-11T09:57:31.848Z,25.40
2018-05-11T09:58:31.812Z,26.90
2018-05-11T09:59:31.777Z,24.20
2018-05-11T10:00:31.742Z,26.20
2018-05-11T10:01:31.706Z,26.40
2018-05-11T10:02:31.671Z,26.90
2018-05-11T10:03:31.644Z,24.10
2018-05-11T10:04:31.614Z,22.50
2018-05-11T10:05:31.577Z,23.20
2018-05-11T10:06:31.550Z,23.00
2018-05-11T10:07:31.511Z,20.20
2018-05-11T10:08:31.475Z,22.70
2018-05-11T10:09:31.436Z,21.00
2018-05-11T10:10:31.407Z,23.30
2018-05-11T10:11:31.390Z,19.00
2018-05-11T10:12:31.349Z,19.00
2018-05-11T10:13:31.315Z,25.10
2018-05-11T10:14:31.275Z,22.60
2018-05-11T10:15:31.244Z,20.80
2018-05-11T10:16:31.213Z,19.00
2018-05-11T10:17:31.182Z,25.70
2018-05-11T10:18:31.149Z,19.60
2018-05-11T10:19:31.115Z,17.50
2018-05-11T10:20:31.079Z,19.60
2018-05-11T10:21:31.046Z,17.70
2018-05-11T10:22:31.011Z,18.90
2018-05-11T10:23:30.982Z,16.70
2018-05-11T10:24:30.971Z,18.80
2018-05-11T10:25:30.921Z,16.00
2018-05-11T10:26:30.888Z,15.80
2018-05-11T10:27:30.852Z,15.70
2018-05-11T10:28:30.820Z,16.90
2018-05-11T10:29:30.784Z,16.70
2018-05-11T10:30:30.757Z,17.20
2018-05-11T10:31:30.725Z,15.80
2018-05-11T10:32:30.688Z,15.70
2018-05-11T10:33:30.657Z,18.40
2018-05-11T10:34:30.678Z,16.80
2018-05-11T10:35:30.589Z,16.00
2018-05-11T10:36:30.561Z,15.20
2018-05-11T10:37:30.532Z,15.60
2018-05-11T10:38:30.499Z,14.20
2018-05-11T10:39:30.463Z,13.60
2018-05-11T10:40:30.430Z,13.70
2018-05-11T10:41:30.395Z,19.50
2018-05-11T10:42:30.364Z,12.10
2018-05-11T10:43:30.332Z,14.70
2018-05-11T10:44:30.302Z,13.80
2018-05-11T10:45:30.272Z,14.50
2018-05-11T10:46:30.233Z,14.00
2018-05-11T10:47:30.206Z,13.40
2018-05-11T10:48:30.257Z,14.80
2018-05-11T10:49:30.143Z,17.50
2018-05-11T10:50:30.111Z,14.70
2018-05-11T10:51:30.078Z,13.80
2018-05-11T10:52:30.044Z,12.90
2018-05-11T10:53:30.011Z,14.40
2018-05-11T10:54:29.981Z,13.00
2018-05-11T10:55:29.948Z,14.50
2018-05-11T10:56:29.919Z,16.10
2018-05-11T10:57:29.889Z,14.60
2018-05-11T10:58:29.856Z,15.80
2018-05-11T10:59:29.829Z,13.40
2018-05-11T11:00:29.790Z,14.40
2018-05-11T11:01:29.754Z,15.30
2018-05-11T11:02:29.829Z,14.80
2018-05-11T11:03:29.695Z,13.40
2018-05-11T11:04:29.662Z,13.30
2018-05-11T11:05:29.628Z,13.50
2018-05-11T11:06:29.598Z,15.50
2018-05-11T11:07:29.565Z,14.30
2018-05-11T11:08:29.537Z,15.10
2018-05-11T11:09:29.507Z,11.60
2018-05-11T11:10:29.473Z,12.70
2018-05-11T11:11:29.440Z,13.70
2018-05-11T11:12:29.407Z,11.30
2018-05-11T11:13:29.423Z,14.10
2018-05-11T11:14:29.341Z,13.90
2018-05-11T11:15:29.311Z,13.10
2018-05-11T11:16:29.291Z,13.20
2018-05-11T11:17:29.253Z,14.10
2018-05-11T11:18:29.213Z,11.50
2018-05-11T11:19:29.184Z,10.60
2018-05-11T11:20:29.156Z,11.90
2018-05-11T11:21:29.124Z,14.50
2018-05-11T11:22:29.093Z,9.50
2018-05-11T11:23:29.061Z,9.90
2018-05-11T11:24:29.027Z,12.00
2018-05-11T11:25:28.992Z,10.10
2018-05-11T11:26:28.960Z,10.00
2018-05-11T11:27:28.931Z,12.90
2018-05-11T11:28:28.901Z,11.20
2018-05-11T11:29:28.872Z,10.90
2018-05-11T11:30:28.840Z,9.10
2018-05-11T11:31:28.806Z,12.80
2018-05-11T11:32:28.773Z,12.00
2018-05-11T11:33:28.740Z,8.70
2018-05-11T11:34:28.757Z,12.60
2018-05-11T11:35:28.680Z,8.60
2018-05-11T11:36:28.647Z,9.40
2018-05-11T11:37:28.615Z,9.00
2018-05-11T11:38:28.581Z,8.50
2018-05-11T11:39:28.554Z,9.30
2018-05-11T11:40:28.567Z,9.10
2018-05-11T11:41:28.498Z,9.70
2018-05-11T11:42:28.462Z,8.30
2018-05-11T11:43:28.429Z,8.60
2018-05-11T11:44:28.396Z,9.60
2018-05-11T11:45:28.362Z,13.90
2018-05-11T11:46:28.332Z,8.20
2018-05-11T11:47:28.380Z,8.70
2018-05-11T11:48:28.273Z,8.70
2018-05-11T11:49:28.244Z,11.00
2018-05-11T11:50:28.208Z,10.50
2018-05-11T11:51:28.176Z,9.00
2018-05-11T11:52:28.148Z,10.20
2018-05-11T11:53:28.119Z,8.00
2018-05-11T11:54:28.092Z,9.00
2018-05-11T11:55:28.055Z,23.90
2018-05-11T11:56:28.047Z,10.00
2018-05-11T11:57:27.985Z,10.50
2018-05-11T11:58:27.957Z,8.40
2018-05-11T11:59:27.927Z,7.70
2018-05-11T12:00:27.899Z,9.10
2018-05-11T12:01:27.874Z,8.10
2018-05-11T12:02:27.840Z,11.40
2018-05-11T12:03:27.805Z,9.20
2018-05-11T12:04:27.771Z,12.80
2018-05-11T12:05:27.736Z,9.80
2018-05-11T12:06:27.715Z,9.50
2018-05-11T12:07:27.679Z,14.40
2018-05-11T12:08:27.647Z,10.10
2018-05-11T12:09:27.612Z,11.30
2018-05-11T12:10:27.581Z,7.10
2018-05-11T12:11:27.551Z,9.90
2018-05-11T12:12:27.523Z,9.90
2018-05-11T12:13:27.493Z,7.50
2018-05-11T12:14:27.463Z,8.00
2018-05-11T12:15:27.433Z,7.40
2018-05-11T12:16:27.396Z,9.60
2018-05-11T12:17:27.364Z,8.60
2018-05-11T12:18:27.333Z,9.80
2018-05-11T12:19:27.303Z,9.40
2018-05-11T12:20:27.281Z,8.40
2018-05-11T12:21:27.246Z,9.40
2018-05-11T12:22:27.208Z,12.20
2018-05-11T12:23:27.185Z,8.50
2018-05-11T12:24:27.152Z,7.30
2018-05-11T12:25:27.129Z,7.20
2018-05-11T12:26:27.135Z,7.90
2018-05-11T12:27:27.061Z,6.90
2018-05-11T12:28:27.026Z,9.40
2018-05-11T12:29:26.996Z,7.70
2018-05-11T12:30:26.966Z,7.00
2018-05-11T12:31:26.935Z,6.80
2018-05-11T12:32:26.910Z,8.90
2018-05-11T12:33:26.877Z,9.50
2018-05-11T12:34:26.849Z,9.30
2018-05-11T12:35:26.823Z,8.00
2018-05-11T12:36:26.782Z,8.90
2018-05-11T12:37:26.754Z,8.20
2018-05-11T12:38:26.724Z,8.10
2018-05-11T12:39:26.691Z,8.80
2018-05-11T12:40:26.661Z,7.20
2018-05-11T12:41:26.628Z,10.70
2018-05-11T12:42:26.598Z,5.60
2018-05-11T12:43:26.568Z,7.00
2018-05-11T12:44:26.539Z,5.10
2018-05-11T12:45:26.526Z,5.50
2018-05-11T12:46:26.479Z,5.90
2018-05-11T12:47:26.447Z,6.90
2018-05-11T12:48:26.419Z,6.40
2018-05-11T12:49:26.380Z,7.50
2018-05-11T12:50:26.355Z,5.70
2018-05-11T12:51:26.321Z,4.80
2018-05-11T12:52:26.294Z,5.20
2018-05-11T12:53:26.274Z,5.40
2018-05-11T12:54:26.226Z,4.90
2018-05-11T12:55:26.203Z,7.40